createdAt,value
2018-12-09T00:01:04.133Z,15.07
2018-12-09T00:03:36.400Z,15.03
2018-12-09T00:06:09.386Z,14.90
2018-12-09T00:08:52.200Z,12.87
2018-12-09T00:11:22.432Z,13.00
2018-12-09T00:13:53.261Z,13.30
2018-12-09T00:16:23.883Z,13.20
2018-12-09T00:18:54.295Z,13.27
2018-12-09T00:21:24.228Z,12.13
2018-12-09T00:23:54.760Z,13.73
2018-12-09T00:26:25.294Z,12.80
2018-12-09T00:28:56.130Z,12.73
2018-12-09T00:31:26.968Z,13.73
2018-12-09T00:33:57.289Z,13.53
2018-12-09T00:36:27.236Z,15.37
2018-12-09T00:38:57.261Z,12.17
2018-12-09T00:41:27.536Z,13.07
2018-12-09T00:43:57.426Z,15.00
2018-12-09T00:46:27.486Z,15.13
2018-12-09T00:48:57.903Z,13.73
2018-12-09T00:51:28.746Z,13.10
2018-12-09T00:53:59.065Z,12.53
2018-12-09T00:56:29.808Z,12.73
2018-12-09T00:59:00.194Z,12.97
2018-12-09T01:01:30.551Z,11.97
2018-12-09T01:04:01.126Z,12.40
2018-12-09T01:06:31.605Z,13.47
2018-12-09T01:09:01.920Z,11.63
2018-12-09T01:11:33.350Z,12.57
2018-12-09T01:14:04.132Z,11.97
2018-12-09T01:16:34.021Z,12.90
2018-12-09T01:19:04.249Z,12.47
2018-12-09T01:21:34.780Z,12.67
2018-12-09T01:24:05.321Z,11.50
2018-12-09T01:26:36.584Z,13.37
2018-12-09T01:29:06.993Z,13.03
2018-12-09T01:31:37.519Z,13.10
2018-12-09T01:34:07.657Z,12.10
2018-12-09T01:36:37.651Z,13.07
2018-12-09T01:39:08.491Z,13.73
2018-12-09T01:41:39.325Z,12.63
2018-12-09T01:44:09.853Z,13.60
2018-12-09T01:46:40.068Z,11.30
2018-12-09T01:49:10.620Z,11.00
2018-12-09T01:51:41.445Z,12.97
2018-12-09T01:54:13.764Z,12.47
2018-12-09T01:56:45.568Z,12.30
2018-12-09T01:59:16.104Z,11.07
2018-12-09T02:01:46.840Z,12.47
2018-12-09T02:04:17.467Z,12.03
2018-12-09T02:06:48.348Z,11.00
2018-12-09T02:09:18.525Z,11.70
2018-12-09T02:11:49.158Z,10.53
2018-12-09T02:14:20.510Z,12.07
2018-12-09T02:16:51.645Z,11.37
2018-12-09T02:19:24.334Z,11.50
2018-12-09T02:21:54.748Z,10.83
2018-12-09T02:24:24.770Z,12.47
2018-12-09T02:26:54.981Z,10.87
2018-12-09T02:29:25.335Z,10.90
2018-12-09T02:31:55.892Z,11.07
2018-12-09T02:34:26.283Z,11.87
2018-12-09T02:36:57.505Z,10.30
2018-12-09T02:39:28.253Z,9.93
2018-12-09T02:41:57.561Z,9.60
2018-12-09T02:44:28.130Z,11.47
2018-12-09T02:46:59.538Z,9.87
2018-12-09T02:49:30.083Z,11.07
2018-12-09T02:52:00.906Z,10.57
2018-12-09T02:54:31.259Z,10.03
2018-12-09T02:57:02.581Z,10.40
2018-12-09T02:59:33.096Z,10.33
2018-12-09T03:02:03.687Z,10.40
2018-12-09T03:07:04.199Z,9.17
2018-12-09T03:09:34.600Z,9.17
2018-12-09T03:12:05.553Z,10.03
2018-12-09T03:14:35.667Z,10.30
2018-12-09T03:17:06.527Z,9.87
2018-12-09T03:19:36.512Z,9.97
2018-12-09T03:22:08.185Z,9.67
2018-12-09T03:24:39.008Z,11.03
2018-12-09T03:27:09.863Z,9.50
2018-12-09T03:29:40.172Z,10.23
2018-12-09T03:32:10.911Z,8.47
2018-12-09T03:34:41.437Z,10.13
2018-12-09T03:37:12.577Z,8.97
2018-12-09T03:39:42.796Z,8.60
2018-12-09T03:42:13.333Z,9.00
2018-12-09T03:44:44.347Z,7.93
2018-12-09T03:47:15.002Z,8.83
2018-12-09T03:49:45.530Z,9.13
2018-12-09T03:52:16.799Z,9.07
2018-12-09T03:54:47.169Z,9.07
2018-12-09T03:57:17.444Z,10.03
2018-12-09T03:59:47.953Z,8.07
2018-12-09T04:02:18.489Z,9.17
2018-12-09T04:04:49.078Z,8.20
2018-12-09T04:07:19.253Z,9.07
2018-12-09T04:09:50.493Z,9.03
2018-12-09T04:12:20.909Z,8.20
2018-12-09T04:14:51.750Z,8.13
2018-12-09T04:19:52.504Z,8.60
2018-12-09T04:22:22.862Z,8.33
2018-12-09T04:24:53.549Z,7.90
2018-12-09T04:27:24.388Z,7.30
2018-12-09T04:29:54.919Z,7.00
2018-12-09T04:32:25.445Z,7.53
2018-12-09T04:34:56.287Z,8.77
2018-12-09T04:37:26.797Z,7.50
2018-12-09T04:39:56.942Z,9.67
2018-12-09T04:42:27.566Z,7.90
2018-12-09T04:44:58.099Z,8.33
2018-12-09T04:47:30.187Z,7.70
2018-12-09T04:50:01.004Z,7.00
2018-12-09T04:52:31.446Z,7.83
2018-12-09T04:55:01.538Z,8.17
2018-12-09T04:57:32.276Z,7.50
2018-12-09T05:00:13.865Z,7.07
2018-12-09T05:02:44.706Z,7.77
2018-12-09T05:05:15.846Z,8.03
2018-12-09T05:07:46.374Z,7.83
2018-12-09T05:10:17.520Z,7.83
2018-12-09T05:12:48.352Z,7.27
2018-12-09T05:15:19.189Z,8.20
2018-12-09T05:17:49.722Z,7.47
2018-12-09T05:20:20.254Z,8.20
2018-12-09T05:22:50.795Z,7.70
2018-12-09T05:25:20.996Z,7.00
2018-12-09T05:27:51.561Z,6.83
2018-12-09T05:30:24.143Z,6.70
2018-12-09T05:32:54.741Z,7.17
2018-12-09T05:35:24.757Z,7.47
2018-12-09T05:37:54.693Z,8.33
2018-12-09T05:40:25.415Z,6.57
2018-12-09T05:42:55.624Z,7.27
2018-12-09T05:45:26.569Z,7.70
2018-12-09T05:47:56.991Z,6.93
2018-12-09T05:50:27.321Z,6.80
2018-12-09T05:52:57.745Z,6.60
2018-12-09T05:55:28.071Z,6.87
2018-12-09T05:57:58.357Z,6.80
2018-12-09T06:00:30.087Z,6.60
2018-12-09T06:03:00.786Z,6.77
2018-12-09T06:05:31.313Z,8.33
2018-12-09T06:08:01.845Z,8.33
2018-12-09T06:10:32.371Z,7.23
2018-12-09T06:13:02.900Z,6.47
2018-12-09T06:15:33.565Z,6.63
2018-12-09T06:18:04.571Z,6.13
2018-12-09T06:20:35.277Z,6.47
2018-12-09T06:23:05.950Z,6.30
2018-12-09T06:25:36.897Z,7.13
2018-12-09T06:28:07.152Z,6.93
2018-12-09T06:30:37.837Z,6.93
2018-12-09T06:33:08.665Z,6.63
2018-12-09T06:35:39.506Z,6.33
2018-12-09T06:38:10.021Z,7.17
2018-12-09T06:40:40.921Z,8.00
2018-12-09T06:43:11.418Z,7.17
2018-12-09T06:45:41.623Z,6.83
2018-12-09T06:48:12.220Z,7.03
2018-12-09T06:50:42.681Z,6.10
2018-12-09T06:53:13.217Z,6.70
2018-12-09T06:55:43.397Z,6.57
2018-12-09T06:58:13.674Z,7.67
2018-12-09T07:00:44.191Z,6.40
2018-12-09T07:03:14.538Z,6.70
2018-12-09T07:05:44.620Z,9.20
2018-12-09T07:08:15.474Z,6.90
2018-12-09T07:10:46.640Z,7.90
2018-12-09T07:13:17.240Z,6.37
2018-12-09T07:15:47.972Z,7.77
2018-12-09T07:18:18.225Z,7.10
2018-12-09T07:20:48.721Z,7.43
2018-12-09T07:23:19.257Z,7.60
2018-12-09T07:25:50.089Z,5.97
2018-12-09T07:28:20.313Z,6.40
2018-12-09T07:30:51.147Z,6.90
2018-12-09T07:33:21.460Z,7.07
2018-12-09T07:35:52.223Z,6.90
2018-12-09T07:38:22.260Z,6.57
2018-12-09T07:40:54.105Z,5.80
2018-12-09T07:43:25.027Z,6.83
2018-12-09T07:45:55.864Z,6.00
2018-12-09T07:48:26.698Z,7.03
2018-12-09T07:50:57.229Z,7.13
2018-12-09T07:53:28.676Z,7.60
2018-12-09T07:55:59.208Z,7.07
2018-12-09T07:58:29.297Z,5.87
2018-12-09T08:00:59.652Z,6.20
2018-12-09T08:03:30.489Z,6.33
2018-12-09T08:08:30.629Z,6.17
2018-12-09T08:11:00.024Z,5.73
2018-12-09T08:13:30.165Z,6.43
2018-12-09T08:16:00.336Z,7.60
2018-12-09T08:18:30.287Z,6.13
2018-12-09T08:21:00.818Z,7.00
2018-12-09T08:23:30.862Z,5.57
2018-12-09T08:26:00.956Z,6.20
2018-12-09T08:28:31.152Z,6.47
2018-12-09T08:31:01.188Z,5.83
2018-12-09T08:33:31.562Z,8.03
2018-12-09T08:36:01.940Z,5.97
2018-12-09T08:38:32.307Z,5.60
2018-12-09T08:41:02.701Z,6.97
2018-12-09T08:43:33.124Z,6.43
2018-12-09T08:46:03.410Z,5.77
2018-12-09T08:48:33.784Z,6.87
2018-12-09T08:51:04.382Z,8.67
2018-12-09T08:53:34.727Z,5.40
2018-12-09T08:56:05.561Z,5.27
2018-12-09T08:58:36.396Z,6.00
2018-12-09T09:01:06.942Z,6.20
2018-12-09T09:06:07.061Z,7.07
2018-12-09T09:08:37.384Z,5.83
2018-12-09T09:11:07.501Z,5.87
2018-12-09T09:13:40.636Z,5.87
2018-12-09T09:16:11.335Z,6.50
2018-12-09T09:18:42.089Z,5.87
2018-12-09T09:21:14.230Z,6.37
2018-12-09T09:23:45.374Z,6.80
2018-12-09T09:26:16.090Z,6.00
2018-12-09T09:28:46.682Z,6.60
2018-12-09T09:31:17.218Z,11.93
2018-12-09T09:33:47.912Z,6.90
2018-12-09T09:36:18.266Z,5.50
2018-12-09T09:38:48.517Z,5.40
2018-12-09T09:41:19.629Z,6.20
2018-12-09T09:43:50.470Z,5.70
2018-12-09T09:46:21.013Z,4.90
2018-12-09T09:48:51.522Z,5.73
2018-12-09T09:51:22.053Z,5.87
2018-12-09T09:53:52.529Z,4.83
2018-12-09T09:56:23.117Z,5.23
2018-12-09T09:58:53.441Z,5.50
2018-12-09T10:01:23.554Z,5.27
2018-12-09T10:06:23.056Z,5.53
2018-12-09T10:08:53.126Z,5.00
2018-12-09T10:11:23.825Z,5.23
2018-12-09T10:13:55.280Z,5.30
2018-12-09T10:16:25.815Z,5.80
2018-12-09T10:18:56.337Z,4.70
2018-12-09T10:21:26.874Z,4.83
2018-12-09T10:23:58.318Z,5.00
2018-12-09T10:26:36.205Z,6.97
2018-12-09T10:29:01.562Z,5.80
2018-12-09T10:31:32.210Z,5.33
2018-12-09T10:34:03.824Z,6.13
2018-12-09T10:36:34.341Z,5.13
2018-12-09T10:39:06.420Z,6.07
2018-12-09T10:41:36.944Z,6.07
2018-12-09T10:44:07.242Z,5.20
2018-12-09T10:46:37.485Z,5.30
2018-12-09T10:49:07.602Z,5.57
2018-12-09T10:51:37.833Z,4.73
2018-12-09T10:54:08.357Z,4.80
2018-12-09T10:56:39.216Z,4.83
2018-12-09T10:59:10.949Z,5.00
2018-12-09T11:01:46.397Z,6.33
2018-12-09T11:04:16.759Z,5.40
2018-12-09T11:06:46.670Z,6.20
2018-12-09T11:09:17.385Z,6.80
2018-12-09T11:11:47.728Z,5.00
2018-12-09T11:14:17.817Z,5.20
2018-12-09T11:16:48.172Z,5.17
2018-12-09T11:19:19.180Z,5.50
2018-12-09T11:21:49.723Z,5.53
2018-12-09T11:24:19.825Z,4.63
2018-12-09T11:26:51.090Z,5.00
2018-12-09T11:29:21.997Z,7.77
2018-12-09T11:31:51.962Z,4.17
2018-12-09T11:34:22.416Z,5.17
2018-12-09T11:36:53.259Z,5.70
2018-12-09T11:39:24.394Z,7.30
2018-12-09T11:41:54.570Z,5.43
2018-12-09T11:44:25.617Z,6.23
2018-12-09T11:46:57.104Z,4.57
2018-12-09T11:49:28.091Z,5.47
2018-12-09T11:51:58.956Z,4.93
2018-12-09T11:56:58.455Z,4.93
2018-12-09T11:59:29.581Z,5.37
2018-12-09T12:02:00.569Z,4.53
2018-12-09T12:04:30.713Z,6.70
2018-12-09T12:07:01.368Z,6.37
2018-12-09T12:09:31.537Z,4.93
2018-12-09T12:12:02.414Z,6.00
2018-12-09T12:14:32.879Z,5.47
2018-12-09T12:17:03.826Z,5.40
2018-12-09T12:19:33.989Z,5.77
2018-12-09T12:22:04.786Z,5.80
2018-12-09T12:29:33.899Z,5.87
2018-12-09T12:32:04.985Z,5.33
2018-12-09T12:34:35.058Z,5.43
2018-12-09T12:37:05.432Z,8.17
2018-12-09T12:39:36.176Z,7.80
2018-12-09T12:42:06.698Z,6.10
2018-12-09T12:44:38.444Z,5.13
2018-12-09T12:47:08.977Z,5.67
2018-12-09T12:49:40.101Z,5.53
2018-12-09T12:52:11.227Z,7.23
2018-12-09T12:54:41.259Z,4.53
2018-12-09T12:57:11.962Z,5.00
2018-12-09T12:59:42.203Z,5.13
2018-12-09T13:02:13.340Z,5.10
2018-12-09T13:04:44.875Z,5.77
2018-12-09T13:07:15.081Z,5.50
2018-12-09T13:09:45.250Z,4.57
2018-12-09T13:12:16.258Z,6.13
2018-12-09T13:14:46.910Z,6.03
2018-12-09T13:17:18.056Z,6.77
2018-12-09T13:19:48.593Z,4.77
2018-12-09T13:22:20.047Z,5.37
2018-12-09T13:24:51.178Z,5.50
2018-12-09T13:27:21.590Z,5.73
2018-12-09T13:29:51.904Z,5.63
2018-12-09T13:32:21.911Z,6.13
2018-12-09T13:34:52.163Z,4.83
2018-12-09T13:37:22.698Z,5.20
2018-12-09T13:42:22.530Z,4.90
2018-12-09T13:44:53.065Z,5.10
2018-12-09T13:47:23.914Z,6.60
2018-12-09T13:49:54.696Z,4.90
2018-12-09T13:52:24.621Z,6.83
2018-12-09T13:54:54.936Z,5.33
2018-12-09T13:57:25.328Z,5.37
2018-12-09T13:59:55.645Z,5.67
2018-12-09T14:02:25.965Z,7.23
2018-12-09T14:04:56.357Z,6.57
2018-12-09T14:07:27.202Z,7.17
2018-12-09T14:09:57.632Z,5.10
2018-12-09T14:12:28.254Z,5.97
2018-12-09T14:14:59.093Z,5.13
2018-12-09T14:17:29.895Z,5.63
2018-12-09T14:20:01.091Z,5.73
2018-12-09T14:22:31.916Z,7.80
2018-12-09T14:25:03.002Z,8.03
2018-12-09T14:27:33.590Z,6.37
2018-12-09T14:30:04.638Z,6.70
2018-12-09T14:32:35.888Z,7.93
2018-12-09T14:35:09.472Z,6.87
2018-12-09T14:37:40.374Z,5.37
2018-12-09T14:40:11.690Z,5.30
2018-12-09T14:42:41.772Z,6.43
2018-12-09T14:45:11.896Z,5.20
2018-12-09T14:47:42.380Z,4.90
2018-12-09T14:50:12.661Z,7.57
2018-12-09T14:52:43.183Z,7.37
2018-12-09T14:55:13.977Z,5.47
2018-12-09T14:57:44.329Z,7.10
2018-12-09T15:00:15.395Z,6.57
2018-12-09T15:02:45.923Z,5.67
2018-12-09T15:05:16.437Z,5.43
2018-12-09T15:07:47.561Z,5.93
2018-12-09T15:10:17.654Z,15.53
2018-12-09T15:12:48.029Z,20.37
2018-12-09T15:15:18.861Z,23.33
2018-12-09T15:17:49.816Z,26.30
2018-12-09T15:20:20.542Z,31.63
2018-12-09T15:22:51.070Z,33.53
2018-12-09T15:25:21.593Z,34.50
2018-12-09T15:27:52.484Z,37.10
2018-12-09T15:30:23.265Z,37.60
2018-12-09T15:32:53.570Z,31.37
2018-12-09T15:35:23.516Z,34.83
2018-12-09T15:37:53.724Z,32.87
2018-12-09T15:40:23.573Z,33.93
2018-12-09T15:42:53.976Z,37.90
2018-12-09T15:47:54.001Z,32.03
2018-12-09T15:50:24.388Z,33.73
2018-12-09T15:52:55.390Z,31.57
2018-12-09T15:55:25.865Z,34.23
2018-12-09T15:57:56.235Z,32.60
2018-12-09T16:00:30.873Z,27.23
2018-12-09T16:03:01.386Z,29.83
2018-12-09T16:05:32.460Z,27.93
2018-12-09T16:08:02.729Z,21.73
2018-12-09T16:10:33.311Z,25.10
2018-12-09T16:13:03.916Z,27.57
2018-12-09T16:15:33.978Z,28.23
2018-12-09T16:18:04.038Z,24.43
2018-12-09T16:20:35.511Z,23.17
2018-12-09T16:23:06.671Z,22.73
2018-12-09T16:25:37.321Z,24.07
2018-12-09T16:28:07.574Z,23.70
2018-12-09T16:30:38.062Z,23.67
2018-12-09T16:33:08.174Z,24.77
2018-12-09T16:35:38.374Z,21.10
2018-12-09T16:38:08.682Z,24.00
2018-12-09T16:40:39.133Z,19.57
2018-12-09T16:43:11.788Z,21.77
2018-12-09T16:45:42.346Z,22.30
2018-12-09T16:48:13.669Z,19.93
2018-12-09T16:50:44.181Z,20.17
2018-12-09T16:53:14.282Z,17.43
2018-12-09T16:55:44.954Z,17.90
2018-12-09T16:58:15.717Z,18.27
2018-12-09T17:00:45.749Z,20.10
2018-12-09T17:03:16.420Z,18.40
2018-12-09T17:05:46.662Z,17.30
2018-12-09T17:08:17.610Z,19.50
2018-12-09T17:10:48.916Z,17.57
2018-12-09T17:13:19.270Z,17.67
2018-12-09T17:15:50.984Z,17.97
2018-12-09T17:18:22.235Z,17.63
2018-12-09T17:20:52.403Z,16.57
2018-12-09T17:23:24.139Z,14.83
2018-12-09T17:25:54.377Z,16.80
2018-12-09T17:28:24.958Z,18.60
2018-12-09T17:30:55.855Z,15.93
2018-12-09T17:33:25.966Z,13.80
2018-12-09T17:35:55.297Z,16.83
2018-12-09T17:38:26.192Z,14.27
2018-12-09T17:40:56.644Z,16.03
2018-12-09T17:43:27.757Z,15.60
2018-12-09T17:45:58.365Z,14.63
2018-12-09T17:48:28.425Z,15.60
2018-12-09T17:50:59.270Z,18.00
2018-12-09T17:53:29.944Z,18.83
2018-12-09T17:56:00.550Z,15.53
2018-12-09T17:58:30.999Z,14.50
2018-12-09T18:01:01.822Z,18.03
2018-12-09T18:03:32.323Z,17.07
2018-12-09T18:06:02.842Z,13.63
2018-12-09T18:08:33.072Z,15.00
2018-12-09T18:11:03.548Z,12.27
2018-12-09T18:13:33.644Z,14.93
2018-12-09T18:16:05.190Z,12.97
2018-12-09T18:18:36.266Z,11.53
2018-12-09T18:21:10.299Z,14.30
2018-12-09T18:23:42.123Z,13.27
2018-12-09T18:26:15.902Z,12.63
2018-12-09T18:28:47.002Z,13.17
2018-12-09T18:31:17.876Z,10.27
2018-12-09T18:33:49.220Z,13.23
2018-12-09T18:36:21.593Z,15.33
2018-12-09T18:38:52.659Z,12.97
2018-12-09T18:41:23.150Z,14.37
2018-12-09T18:43:53.968Z,13.90
2018-12-09T18:46:26.815Z,12.37
2018-12-09T18:48:58.479Z,11.70
2018-12-09T18:51:29.360Z,12.57
2018-12-09T18:53:59.628Z,13.80
2018-12-09T18:56:30.791Z,10.90
2018-12-09T18:59:01.154Z,11.20
2018-12-09T19:01:32.012Z,12.03
2018-12-09T19:04:03.692Z,11.10
2018-12-09T19:06:34.582Z,11.57
2018-12-09T19:09:07.300Z,12.90
2018-12-09T19:11:37.439Z,13.47
2018-12-09T19:14:11.496Z,11.57
2018-12-09T19:16:44.228Z,9.93
2018-12-09T19:19:14.930Z,10.27
2018-12-09T19:21:45.573Z,9.50
2018-12-09T19:24:16.216Z,11.57
2018-12-09T19:26:46.827Z,9.63
2018-12-09T19:29:17.181Z,10.10
2018-12-09T19:31:47.518Z,11.33
2018-12-09T19:34:17.859Z,9.50
2018-12-09T19:36:47.877Z,9.07
2018-12-09T19:39:18.153Z,8.73
2018-12-09T19:44:20.760Z,8.43
2018-12-09T19:46:51.872Z,9.17
2018-12-09T19:49:22.301Z,9.30
2018-12-09T19:51:52.400Z,10.03
2018-12-09T19:54:22.744Z,11.90
2018-12-09T19:56:53.839Z,11.47
2018-12-09T19:59:24.369Z,9.80
2018-12-09T20:01:55.149Z,10.50
2018-12-09T20:04:26.294Z,8.43
2018-12-09T20:06:56.507Z,8.70
2018-12-09T20:09:27.132Z,9.17
2018-12-09T20:11:57.066Z,9.00
2018-12-09T20:14:27.020Z,10.23
2018-12-09T20:16:57.084Z,8.47
2018-12-09T20:19:27.673Z,9.67
2018-12-09T20:21:58.474Z,10.10
2018-12-09T20:24:29.913Z,8.40
2018-12-09T20:27:00.447Z,9.03
2018-12-09T20:29:31.093Z,8.87
2018-12-09T20:32:01.917Z,8.13
2018-12-09T20:34:32.027Z,11.53
2018-12-09T20:37:02.546Z,9.07
2018-12-09T20:39:33.467Z,10.67
2018-12-09T20:42:05.146Z,7.97
2018-12-09T20:44:35.732Z,8.00
2018-12-09T20:47:05.598Z,10.47
2018-12-09T20:49:35.809Z,8.50
2018-12-09T20:52:06.640Z,10.00
2018-12-09T20:54:38.107Z,8.70
2018-12-09T20:57:09.304Z,9.87
2018-12-09T20:59:40.096Z,10.47
2018-12-09T21:02:10.914Z,7.27
2018-12-09T21:04:41.702Z,6.90
2018-12-09T21:09:41.901Z,9.00
2018-12-09T21:12:13.486Z,9.23
2018-12-09T21:14:47.519Z,9.20
2018-12-09T21:17:18.074Z,7.77
2018-12-09T21:19:48.732Z,7.93
2018-12-09T21:22:20.224Z,8.40
2018-12-09T21:24:51.084Z,8.60
2018-12-09T21:27:24.854Z,7.63
2018-12-09T21:29:55.454Z,9.00
2018-12-09T21:32:26.503Z,7.50
2018-12-09T21:34:56.094Z,8.47
2018-12-09T21:37:26.013Z,7.07
2018-12-09T21:39:56.127Z,9.23
2018-12-09T21:42:27.383Z,7.67
2018-12-09T21:44:57.795Z,6.87
2018-12-09T21:47:28.251Z,7.43
2018-12-09T21:49:59.128Z,7.30
2018-12-09T21:52:30.315Z,7.10
2018-12-09T21:55:01.794Z,5.57
2018-12-09T21:57:31.811Z,7.60
2018-12-09T22:00:02.099Z,7.67
2018-12-09T22:02:33.203Z,7.40
2018-12-09T22:05:03.061Z,7.47
2018-12-09T22:07:33.512Z,7.77
2018-12-09T22:10:05.348Z,8.23
2018-12-09T22:12:36.177Z,6.13
2018-12-09T22:15:05.629Z,8.73
2018-12-09T22:17:36.031Z,10.07
2018-12-09T22:20:07.058Z,8.33
2018-12-09T22:22:38.011Z,7.50
2018-12-09T22:25:08.822Z,6.83
2018-12-09T22:27:40.279Z,8.90
2018-12-09T22:30:10.816Z,7.77
2018-12-09T22:32:41.150Z,9.60
2018-12-09T22:35:11.366Z,8.90
2018-12-09T22:37:41.138Z,7.47
2018-12-09T22:40:11.207Z,6.63
2018-12-09T22:42:41.906Z,7.77
2018-12-09T22:45:12.443Z,7.50
2018-12-09T22:47:43.770Z,8.00
2018-12-09T22:50:14.729Z,6.77
2018-12-09T22:52:45.892Z,8.23
2018-12-09T22:55:16.398Z,7.63
2018-12-09T22:57:47.243Z,6.07
2018-12-09T23:00:25.176Z,7.70
2018-12-09T23:03:04.274Z,7.20
2018-12-09T23:05:34.793Z,6.53
2018-12-09T23:08:06.252Z,6.50
2018-12-09T23:10:36.577Z,7.47
2018-12-09T23:13:06.992Z,8.20
2018-12-09T23:15:37.242Z,8.63
2018-12-09T23:18:08.262Z,8.40
2018-12-09T23:20:38.462Z,6.33
2018-12-09T23:23:08.809Z,7.30
2018-12-09T23:25:39.962Z,7.63
2018-12-09T23:28:09.875Z,6.83
2018-12-09T23:30:41.318Z,6.57
2018-12-09T23:33:12.152Z,7.40
2018-12-09T23:35:42.479Z,7.00
2018-12-09T23:38:12.347Z,6.57
2018-12-09T23:40:42.386Z,6.43
2018-12-09T23:43:13.308Z,5.70
2018-12-09T23:45:43.393Z,6.57
2018-12-09T23:48:13.595Z,10.73
2018-12-09T23:50:43.715Z,6.53
2018-12-09T23:53:14.032Z,7.90
2018-12-09T23:55:44.460Z,7.07
2018-12-09T23:58:14.993Z,6.90
